sensor_id;sensor_type;location;lat;lon;timestamp;P1;durP1;ratioP1;P2;durP2;ratioP2
17424;SDS011;8830;50.978;5.058;2022-08-19T00:02:03;17.47;;;16.07;;
17424;SDS011;8830;50.978;5.058;2022-08-19T00:05:09;18.27;;;16.40;;
17424;SDS011;8830;50.978;5.058;2022-08-19T00:10:51;17.80;;;16.40;;
17424;SDS011;8830;50.978;5.058;2022-08-19T00:13:19;18.80;;;17.30;;
17424;SDS011;8830;50.978;5.058;2022-08-19T00:15:54;18.13;;;16.63;;
17424;SDS011;8830;50.978;5.058;2022-08-19T00:18:26;19.17;;;17.33;;
17424;SDS011;8830;50.978;5.058;2022-08-19T00:21:02;18.57;;;17.07;;
17424;SDS011;8830;50.978;5.058;2022-08-19T00:26:31;18.63;;;17.23;;
17424;SDS011;8830;50.978;5.058;2022-08-19T00:31:52;20.00;;;18.50;;
17424;SDS011;8830;50.978;5.058;2022-08-19T00:34:55;19.13;;;17.37;;
17424;SDS011;8830;50.978;5.058;2022-08-19T00:37:35;18.60;;;17.10;;
17424;SDS011;8830;50.978;5.058;2022-08-19T00:40:12;21.63;;;19.73;;
17424;SDS011;8830;50.978;5.058;2022-08-19T00:45:23;20.37;;;18.87;;
17424;SDS011;8830;50.978;5.058;2022-08-19T00:48:01;23.10;;;20.90;;
17424;SDS011;8830;50.978;5.058;2022-08-19T00:50:39;21.87;;;20.23;;
17424;SDS011;8830;50.978;5.058;2022-08-19T00:53:10;22.93;;;21.07;;
17424;SDS011;8830;50.978;5.058;2022-08-19T00:56:08;22.43;;;20.57;;
17424;SDS011;8830;50.978;5.058;2022-08-19T01:01:28;21.63;;;19.93;;
17424;SDS011;8830;50.978;5.058;2022-08-19T01:04:21;22.83;;;20.83;;
17424;SDS011;8830;50.978;5.058;2022-08-19T01:06:53;22.53;;;20.50;;
17424;SDS011;8830;50.978;5.058;2022-08-19T01:09:28;24.03;;;21.63;;
17424;SDS011;8830;50.978;5.058;2022-08-19T01:12:15;24.97;;;22.70;;
17424;SDS011;8830;50.978;5.058;2022-08-19T01:14:47;29.00;;;26.17;;
17424;SDS011;8830;50.978;5.058;2022-08-19T01:17:26;28.60;;;25.67;;
17424;SDS011;8830;50.978;5.058;2022-08-19T01:19:54;31.87;;;26.30;;
17424;SDS011;8830;50.978;5.058;2022-08-19T01:22:30;30.03;;;26.93;;
17424;SDS011;8830;50.978;5.058;2022-08-19T01:25:03;31.03;;;26.50;;
17424;SDS011;8830;50.978;5.058;2022-08-19T01:27:37;31.93;;;28.63;;
17424;SDS011;8830;50.978;5.058;2022-08-19T01:30:08;31.30;;;28.17;;
17424;SDS011;8830;50.978;5.058;2022-08-19T01:32:37;30.60;;;27.37;;
17424;SDS011;8830;50.978;5.058;2022-08-19T01:35:04;33.30;;;29.67;;
17424;SDS011;8830;50.978;5.058;2022-08-19T01:37:49;34.87;;;30.53;;
17424;SDS011;8830;50.978;5.058;2022-08-19T01:40:21;36.23;;;31.13;;
17424;SDS011;8830;50.978;5.058;2022-08-19T01:45:33;34.00;;;30.43;;
17424;SDS011;8830;50.978;5.058;2022-08-19T01:48:08;33.00;;;29.70;;
17424;SDS011;8830;50.978;5.058;2022-08-19T01:50:37;34.00;;;30.50;;
17424;SDS011;8830;50.978;5.058;2022-08-19T01:53:23;36.67;;;31.60;;
17424;SDS011;8830;50.978;5.058;2022-08-19T01:55:52;40.37;;;33.03;;
17424;SDS011;8830;50.978;5.058;2022-08-19T01:58:28;37.93;;;32.47;;
17424;SDS011;8830;50.978;5.058;2022-08-19T02:01:02;34.13;;;30.50;;
17424;SDS011;8830;50.978;5.058;2022-08-19T02:03:37;37.83;;;33.13;;
17424;SDS011;8830;50.978;5.058;2022-08-19T02:06:08;37.33;;;32.43;;
17424;SDS011;8830;50.978;5.058;2022-08-19T02:11:24;41.17;;;33.73;;
17424;SDS011;8830;50.978;5.058;2022-08-19T02:14:06;43.23;;;35.13;;
17424;SDS011;8830;50.978;5.058;2022-08-19T02:16:49;42.00;;;35.37;;
17424;SDS011;8830;50.978;5.058;2022-08-19T02:19:18;41.33;;;35.00;;
17424;SDS011;8830;50.978;5.058;2022-08-19T02:21:46;42.63;;;35.23;;
17424;SDS011;8830;50.978;5.058;2022-08-19T02:24:17;44.40;;;35.87;;
17424;SDS011;8830;50.978;5.058;2022-08-19T02:26:45;42.03;;;35.03;;
17424;SDS011;8830;50.978;5.058;2022-08-19T02:29:21;44.33;;;35.00;;
17424;SDS011;8830;50.978;5.058;2022-08-19T02:31:50;47.67;;;36.17;;
17424;SDS011;8830;50.978;5.058;2022-08-19T02:34:30;46.10;;;36.60;;
17424;SDS011;8830;50.978;5.058;2022-08-19T02:36:58;47.70;;;36.03;;
17424;SDS011;8830;50.978;5.058;2022-08-19T02:39:31;47.87;;;37.37;;
17424;SDS011;8830;50.978;5.058;2022-08-19T02:42:01;45.83;;;37.93;;
17424;SDS011;8830;50.978;5.058;2022-08-19T02:44:30;51.10;;;37.60;;
17424;SDS011;8830;50.978;5.058;2022-08-19T02:47:09;49.77;;;38.87;;
17424;SDS011;8830;50.978;5.058;2022-08-19T02:49:41;52.97;;;38.23;;
17424;SDS011;8830;50.978;5.058;2022-08-19T02:52:12;54.23;;;39.60;;
17424;SDS011;8830;50.978;5.058;2022-08-19T02:54:47;51.40;;;39.43;;
17424;SDS011;8830;50.978;5.058;2022-08-19T02:57:16;58.37;;;39.67;;
17424;SDS011;8830;50.978;5.058;2022-08-19T02:59:45;61.23;;;40.73;;
17424;SDS011;8830;50.978;5.058;2022-08-19T03:02:12;56.27;;;41.23;;
17424;SDS011;8830;50.978;5.058;2022-08-19T03:04:40;58.43;;;40.87;;
17424;SDS011;8830;50.978;5.058;2022-08-19T03:07:12;54.13;;;40.97;;
17424;SDS011;8830;50.978;5.058;2022-08-19T03:09:42;53.23;;;40.27;;
17424;SDS011;8830;50.978;5.058;2022-08-19T03:12:10;56.77;;;42.20;;
17424;SDS011;8830;50.978;5.058;2022-08-19T03:14:39;56.87;;;41.13;;
17424;SDS011;8830;50.978;5.058;2022-08-19T03:17:10;54.10;;;40.20;;
17424;SDS011;8830;50.978;5.058;2022-08-19T03:19:40;57.13;;;40.77;;
17424;SDS011;8830;50.978;5.058;2022-08-19T03:22:09;59.20;;;40.23;;
17424;SDS011;8830;50.978;5.058;2022-08-19T03:24:36;54.53;;;40.03;;
17424;SDS011;8830;50.978;5.058;2022-08-19T03:27:04;55.37;;;40.63;;
17424;SDS011;8830;50.978;5.058;2022-08-19T03:29:36;60.13;;;39.93;;
17424;SDS011;8830;50.978;5.058;2022-08-19T03:32:06;56.50;;;40.53;;
17424;SDS011;8830;50.978;5.058;2022-08-19T03:34:36;60.80;;;40.77;;
17424;SDS011;8830;50.978;5.058;2022-08-19T03:37:05;55.33;;;41.37;;
17424;SDS011;8830;50.978;5.058;2022-08-19T03:39:37;53.70;;;38.93;;
17424;SDS011;8830;50.978;5.058;2022-08-19T03:42:10;54.70;;;38.20;;
17424;SDS011;8830;50.978;5.058;2022-08-19T03:44:39;54.40;;;39.23;;
17424;SDS011;8830;50.978;5.058;2022-08-19T03:47:10;54.40;;;39.33;;
17424;SDS011;8830;50.978;5.058;2022-08-19T03:49:45;55.20;;;39.37;;
17424;SDS011;8830;50.978;5.058;2022-08-19T03:52:16;59.80;;;41.37;;
17424;SDS011;8830;50.978;5.058;2022-08-19T03:54:50;53.27;;;39.37;;
17424;SDS011;8830;50.978;5.058;2022-08-19T03:57:20;55.50;;;39.97;;
17424;SDS011;8830;50.978;5.058;2022-08-19T03:59:49;57.10;;;41.33;;
17424;SDS011;8830;50.978;5.058;2022-08-19T04:02:16;55.67;;;39.33;;
17424;SDS011;8830;50.978;5.058;2022-08-19T04:04:43;55.03;;;40.20;;
17424;SDS011;8830;50.978;5.058;2022-08-19T04:07:13;56.37;;;40.30;;
17424;SDS011;8830;50.978;5.058;2022-08-19T04:09:46;58.37;;;40.60;;
17424;SDS011;8830;50.978;5.058;2022-08-19T04:12:14;58.10;;;40.67;;
17424;SDS011;8830;50.978;5.058;2022-08-19T04:14:42;57.33;;;40.03;;
17424;SDS011;8830;50.978;5.058;2022-08-19T04:17:10;57.57;;;39.60;;
17424;SDS011;8830;50.978;5.058;2022-08-19T04:19:39;58.03;;;40.10;;
17424;SDS011;8830;50.978;5.058;2022-08-19T04:22:09;60.03;;;39.47;;
17424;SDS011;8830;50.978;5.058;2022-08-19T04:24:37;62.13;;;41.67;;
17424;SDS011;8830;50.978;5.058;2022-08-19T04:27:05;63.27;;;41.23;;
17424;SDS011;8830;50.978;5.058;2022-08-19T04:29:36;64.70;;;39.90;;
17424;SDS011;8830;50.978;5.058;2022-08-19T04:32:05;57.97;;;40.90;;
17424;SDS011;8830;50.978;5.058;2022-08-19T04:40:45;56.23;;;40.70;;
17424;SDS011;8830;50.978;5.058;2022-08-19T04:43:35;57.67;;;40.57;;
17424;SDS011;8830;50.978;5.058;2022-08-19T04:46:10;59.07;;;39.27;;
17424;SDS011;8830;50.978;5.058;2022-08-19T04:49:00;54.97;;;41.17;;
17424;SDS011;8830;50.978;5.058;2022-08-19T04:56:58;57.10;;;39.80;;
17424;SDS011;8830;50.978;5.058;2022-08-19T04:59:47;52.83;;;39.30;;
17424;SDS011;8830;50.978;5.058;2022-08-19T05:02:19;58.13;;;40.13;;
17424;SDS011;8830;50.978;5.058;2022-08-19T05:05:19;54.47;;;38.63;;
17424;SDS011;8830;50.978;5.058;2022-08-19T05:08:05;54.10;;;39.00;;
17424;SDS011;8830;50.978;5.058;2022-08-19T05:10:51;51.37;;;38.37;;
17424;SDS011;8830;50.978;5.058;2022-08-19T05:13:40;51.77;;;36.70;;
17424;SDS011;8830;50.978;5.058;2022-08-19T05:16:42;50.73;;;37.47;;
17424;SDS011;8830;50.978;5.058;2022-08-19T05:19:15;52.40;;;36.00;;
17424;SDS011;8830;50.978;5.058;2022-08-19T05:22:25;46.00;;;36.27;;
17424;SDS011;8830;50.978;5.058;2022-08-19T05:32:06;45.00;;;34.40;;
17424;SDS011;8830;50.978;5.058;2022-08-19T05:34:56;46.67;;;34.40;;
17424;SDS011;8830;50.978;5.058;2022-08-19T05:37:53;43.37;;;33.07;;
17424;SDS011;8830;50.978;5.058;2022-08-19T05:40:56;44.97;;;33.63;;
17424;SDS011;8830;50.978;5.058;2022-08-19T05:52:58;32.22;;;28.73;;
17424;SDS011;8830;50.978;5.058;2022-08-19T05:55:43;32.17;;;27.27;;
17424;SDS011;8830;50.978;5.058;2022-08-19T05:58:44;27.65;;;24.05;;
17424;SDS011;8830;50.978;5.058;2022-08-19T06:04:05;29.27;;;22.77;;
17424;SDS011;8830;50.978;5.058;2022-08-19T06:06:52;25.70;;;23.00;;
17424;SDS011;8830;50.978;5.058;2022-08-19T06:09:29;24.45;;;21.27;;
17424;SDS011;8830;50.978;5.058;2022-08-19T06:12:13;23.10;;;20.80;;
17424;SDS011;8830;50.978;5.058;2022-08-19T06:14:59;26.48;;;20.42;;
17424;SDS011;8830;50.978;5.058;2022-08-19T06:17:33;24.90;;;20.63;;
17424;SDS011;8830;50.978;5.058;2022-08-19T06:20:10;30.42;;;21.05;;
17424;SDS011;8830;50.978;5.058;2022-08-19T06:22:48;28.23;;;23.33;;
17424;SDS011;8830;50.978;5.058;2022-08-19T06:27:58;24.23;;;21.15;;
17424;SDS011;8830;50.978;5.058;2022-08-19T06:30:29;20.80;;;18.73;;
17424;SDS011;8830;50.978;5.058;2022-08-19T06:33:02;19.60;;;17.70;;
17424;SDS011;8830;50.978;5.058;2022-08-19T06:35:30;20.67;;;18.58;;
17424;SDS011;8830;50.978;5.058;2022-08-19T06:38:05;18.50;;;16.80;;
17424;SDS011;8830;50.978;5.058;2022-08-19T06:40:35;17.58;;;15.77;;
17424;SDS011;8830;50.978;5.058;2022-08-19T06:43:14;20.77;;;15.90;;
17424;SDS011;8830;50.978;5.058;2022-08-19T06:45:46;15.60;;;14.27;;
17424;SDS011;8830;50.978;5.058;2022-08-19T06:48:21;17.15;;;14.05;;
17424;SDS011;8830;50.978;5.058;2022-08-19T06:51:01;15.45;;;13.93;;
17424;SDS011;8830;50.978;5.058;2022-08-19T06:53:44;16.23;;;12.70;;
17424;SDS011;8830;50.978;5.058;2022-08-19T06:56:21;13.20;;;11.90;;
17424;SDS011;8830;50.978;5.058;2022-08-19T06:58:59;12.35;;;11.25;;
17424;SDS011;8830;50.978;5.058;2022-08-19T07:01:43;12.27;;;11.32;;
17424;SDS011;8830;50.978;5.058;2022-08-19T07:07:26;11.48;;;10.30;;
17424;SDS011;8830;50.978;5.058;2022-08-19T07:12:57;11.93;;;10.60;;
17424;SDS011;8830;50.978;5.058;2022-08-19T07:15:28;11.18;;;10.20;;
17424;SDS011;8830;50.978;5.058;2022-08-19T07:18:03;10.77;;;9.77;;
17424;SDS011;8830;50.978;5.058;2022-08-19T07:20:51;11.55;;;10.18;;
17424;SDS011;8830;50.978;5.058;2022-08-19T07:23:27;10.90;;;9.90;;
17424;SDS011;8830;50.978;5.058;2022-08-19T07:28:59;14.32;;;10.02;;
17424;SDS011;8830;50.978;5.058;2022-08-19T07:33:58;15.65;;;9.65;;
17424;SDS011;8830;50.978;5.058;2022-08-19T07:36:27;13.57;;;10.13;;
17424;SDS011;8830;50.978;5.058;2022-08-19T07:38:55;11.55;;;10.02;;
17424;SDS011;8830;50.978;5.058;2022-08-19T07:41:30;10.93;;;9.57;;
17424;SDS011;8830;50.978;5.058;2022-08-19T07:43:58;12.00;;;9.30;;
17424;SDS011;8830;50.978;5.058;2022-08-19T07:46:30;13.40;;;9.60;;
17424;SDS011;8830;50.978;5.058;2022-08-19T07:49:00;10.48;;;9.48;;
17424;SDS011;8830;50.978;5.058;2022-08-19T07:51:35;12.40;;;9.70;;
17424;SDS011;8830;50.978;5.058;2022-08-19T07:54:08;9.65;;;8.80;;
17424;SDS011;8830;50.978;5.058;2022-08-19T07:56:40;17.55;;;9.90;;
17424;SDS011;8830;50.978;5.058;2022-08-19T07:59:12;19.25;;;11.88;;
17424;SDS011;8830;50.978;5.058;2022-08-19T08:01:49;9.93;;;9.02;;
17424;SDS011;8830;50.978;5.058;2022-08-19T08:04:31;14.90;;;9.23;;
17424;SDS011;8830;50.978;5.058;2022-08-19T08:07:17;12.70;;;8.73;;
17424;SDS011;8830;50.978;5.058;2022-08-19T08:10:03;14.70;;;9.27;;
17424;SDS011;8830;50.978;5.058;2022-08-19T08:12:38;10.30;;;9.13;;
17424;SDS011;8830;50.978;5.058;2022-08-19T08:15:09;9.77;;;8.65;;
17424;SDS011;8830;50.978;5.058;2022-08-19T08:17:42;10.10;;;7.90;;
17424;SDS011;8830;50.978;5.058;2022-08-19T08:20:12;9.27;;;7.53;;
17424;SDS011;8830;50.978;5.058;2022-08-19T08:22:48;11.32;;;7.68;;
17424;SDS011;8830;50.978;5.058;2022-08-19T08:25:38;10.40;;;7.25;;
17424;SDS011;8830;50.978;5.058;2022-08-19T08:28:10;9.60;;;8.60;;
17424;SDS011;8830;50.978;5.058;2022-08-19T08:30:40;11.07;;;7.72;;
17424;SDS011;8830;50.978;5.058;2022-08-19T08:33:12;10.73;;;7.40;;
17424;SDS011;8830;50.978;5.058;2022-08-19T08:35:50;7.80;;;6.88;;
17424;SDS011;8830;50.978;5.058;2022-08-19T08:38:24;14.50;;;8.07;;
17424;SDS011;8830;50.978;5.058;2022-08-19T08:41:05;7.32;;;6.63;;
17424;SDS011;8830;50.978;5.058;2022-08-19T08:46:50;9.48;;;6.68;;
17424;SDS011;8830;50.978;5.058;2022-08-19T08:49:28;7.32;;;6.63;;
17424;SDS011;8830;50.978;5.058;2022-08-19T08:52:10;6.70;;;5.40;;
17424;SDS011;8830;50.978;5.058;2022-08-19T08:55:08;4.38;;;3.97;;
17424;SDS011;8830;50.978;5.058;2022-08-19T08:58:24;5.35;;;4.53;;
17424;SDS011;8830;50.978;5.058;2022-08-19T09:11:08;7.05;;;4.03;;
17424;SDS011;8830;50.978;5.058;2022-08-19T09:17:12;5.78;;;4.07;;
17424;SDS011;8830;50.978;5.058;2022-08-19T09:19:57;7.38;;;4.30;;
17424;SDS011;8830;50.978;5.058;2022-08-19T09:23:10;4.72;;;4.07;;
17424;SDS011;8830;50.978;5.058;2022-08-19T09:25:41;7.45;;;3.75;;
17424;SDS011;8830;50.978;5.058;2022-08-19T09:28:20;5.60;;;4.32;;
17424;SDS011;8830;50.978;5.058;2022-08-19T09:30:53;4.25;;;3.80;;
17424;SDS011;8830;50.978;5.058;2022-08-19T09:33:39;4.95;;;4.32;;
17424;SDS011;8830;50.978;5.058;2022-08-19T09:36:14;4.32;;;3.92;;
17424;SDS011;8830;50.978;5.058;2022-08-19T09:38:43;4.90;;;4.35;;
17424;SDS011;8830;50.978;5.058;2022-08-19T09:41:17;13.20;;;5.55;;
17424;SDS011;8830;50.978;5.058;2022-08-19T09:43:50;4.70;;;3.75;;
17424;SDS011;8830;50.978;5.058;2022-08-19T09:46:23;6.57;;;3.85;;
17424;SDS011;8830;50.978;5.058;2022-08-19T09:48:51;4.60;;;3.65;;
17424;SDS011;8830;50.978;5.058;2022-08-19T09:51:23;5.00;;;3.10;;
17424;SDS011;8830;50.978;5.058;2022-08-19T09:53:51;5.13;;;3.40;;
17424;SDS011;8830;50.978;5.058;2022-08-19T09:56:21;5.60;;;3.75;;
17424;SDS011;8830;50.978;5.058;2022-08-19T10:01:25;6.63;;;3.75;;
17424;SDS011;8830;50.978;5.058;2022-08-19T10:03:56;3.67;;;3.20;;
17424;SDS011;8830;50.978;5.058;2022-08-19T10:06:25;5.18;;;3.60;;
17424;SDS011;8830;50.978;5.058;2022-08-19T10:08:55;3.92;;;3.63;;
17424;SDS011;8830;50.978;5.058;2022-08-19T10:11:23;4.43;;;3.60;;
17424;SDS011;8830;50.978;5.058;2022-08-19T10:13:53;8.20;;;3.47;;
17424;SDS011;8830;50.978;5.058;2022-08-19T10:16:28;4.10;;;3.70;;
17424;SDS011;8830;50.978;5.058;2022-08-19T10:18:57;7.03;;;3.58;;
17424;SDS011;8830;50.978;5.058;2022-08-19T10:21:25;4.88;;;3.63;;
17424;SDS011;8830;50.978;5.058;2022-08-19T10:23:58;8.85;;;3.80;;
17424;SDS011;8830;50.978;5.058;2022-08-19T10:26:29;7.68;;;3.67;;
17424;SDS011;8830;50.978;5.058;2022-08-19T10:28:58;5.63;;;3.78;;
17424;SDS011;8830;50.978;5.058;2022-08-19T10:31:29;3.75;;;3.45;;
17424;SDS011;8830;50.978;5.058;2022-08-19T10:33:58;7.00;;;3.53;;
17424;SDS011;8830;50.978;5.058;2022-08-19T10:36:28;3.92;;;3.63;;
17424;SDS011;8830;50.978;5.058;2022-08-19T10:38:58;6.63;;;3.97;;
17424;SDS011;8830;50.978;5.058;2022-08-19T10:41:29;4.50;;;4.00;;
17424;SDS011;8830;50.978;5.058;2022-08-19T10:44:01;4.10;;;3.42;;
17424;SDS011;8830;50.978;5.058;2022-08-19T10:46:33;6.40;;;3.88;;
17424;SDS011;8830;50.978;5.058;2022-08-19T10:49:04;3.90;;;3.60;;
17424;SDS011;8830;50.978;5.058;2022-08-19T10:51:32;3.78;;;3.38;;
17424;SDS011;8830;50.978;5.058;2022-08-19T10:54:17;4.20;;;3.72;;
17424;SDS011;8830;50.978;5.058;2022-08-19T10:56:45;4.15;;;3.45;;
17424;SDS011;8830;50.978;5.058;2022-08-19T10:59:18;5.35;;;4.10;;
17424;SDS011;8830;50.978;5.058;2022-08-19T11:01:52;3.65;;;3.40;;
17424;SDS011;8830;50.978;5.058;2022-08-19T11:04:20;6.65;;;4.45;;
17424;SDS011;8830;50.978;5.058;2022-08-19T11:06:48;3.75;;;3.45;;
17424;SDS011;8830;50.978;5.058;2022-08-19T11:09:17;5.97;;;3.42;;
17424;SDS011;8830;50.978;5.058;2022-08-19T11:11:46;5.80;;;3.25;;
17424;SDS011;8830;50.978;5.058;2022-08-19T11:14:16;5.18;;;3.50;;
17424;SDS011;8830;50.978;5.058;2022-08-19T11:16:47;4.97;;;3.78;;
17424;SDS011;8830;50.978;5.058;2022-08-19T11:19:17;3.65;;;3.35;;
17424;SDS011;8830;50.978;5.058;2022-08-19T11:21:48;4.47;;;3.78;;
17424;SDS011;8830;50.978;5.058;2022-08-19T11:24:18;4.05;;;3.20;;
17424;SDS011;8830;50.978;5.058;2022-08-19T11:26:47;4.25;;;3.75;;
17424;SDS011;8830;50.978;5.058;2022-08-19T11:29:17;5.75;;;3.92;;
17424;SDS011;8830;50.978;5.058;2022-08-19T11:31:45;4.97;;;3.90;;
17424;SDS011;8830;50.978;5.058;2022-08-19T11:34:23;4.55;;;3.60;;
17424;SDS011;8830;50.978;5.058;2022-08-19T11:36:54;3.38;;;2.90;;
17424;SDS011;8830;50.978;5.058;2022-08-19T11:39:27;3.92;;;3.53;;
17424;SDS011;8830;50.978;5.058;2022-08-19T11:42:00;6.28;;;3.35;;
17424;SDS011;8830;50.978;5.058;2022-08-19T11:44:50;4.20;;;3.45;;
17424;SDS011;8830;50.978;5.058;2022-08-19T11:47:18;9.23;;;4.53;;
17424;SDS011;8830;50.978;5.058;2022-08-19T11:49:48;6.78;;;3.58;;
17424;SDS011;8830;50.978;5.058;2022-08-19T11:52:16;11.00;;;4.18;;
17424;SDS011;8830;50.978;5.058;2022-08-19T11:54:47;3.88;;;3.47;;
17424;SDS011;8830;50.978;5.058;2022-08-19T11:57:14;8.93;;;3.22;;
17424;SDS011;8830;50.978;5.058;2022-08-19T11:59:47;4.65;;;3.20;;
17424;SDS011;8830;50.978;5.058;2022-08-19T12:02:16;6.10;;;3.63;;
17424;SDS011;8830;50.978;5.058;2022-08-19T12:04:52;7.95;;;4.30;;
17424;SDS011;8830;50.978;5.058;2022-08-19T12:07:21;5.65;;;3.67;;
17424;SDS011;8830;50.978;5.058;2022-08-19T12:09:52;6.18;;;3.40;;
17424;SDS011;8830;50.978;5.058;2022-08-19T12:12:21;8.85;;;3.97;;
17424;SDS011;8830;50.978;5.058;2022-08-19T12:14:54;5.53;;;3.70;;
17424;SDS011;8830;50.978;5.058;2022-08-19T12:17:38;7.85;;;4.30;;
17424;SDS011;8830;50.978;5.058;2022-08-19T12:20:09;3.67;;;3.30;;
17424;SDS011;8830;50.978;5.058;2022-08-19T12:22:41;4.88;;;3.00;;
17424;SDS011;8830;50.978;5.058;2022-08-19T12:25:14;3.70;;;2.88;;
17424;SDS011;8830;50.978;5.058;2022-08-19T12:27:44;4.80;;;3.28;;
17424;SDS011;8830;50.978;5.058;2022-08-19T12:30:15;3.33;;;3.00;;
17424;SDS011;8830;50.978;5.058;2022-08-19T12:35:25;3.28;;;2.97;;
17424;SDS011;8830;50.978;5.058;2022-08-19T12:38:02;3.20;;;2.90;;
17424;SDS011;8830;50.978;5.058;2022-08-19T12:40:30;3.88;;;3.13;;
17424;SDS011;8830;50.978;5.058;2022-08-19T12:43:03;5.43;;;3.28;;
17424;SDS011;8830;50.978;5.058;2022-08-19T12:45:34;6.28;;;3.03;;
17424;SDS011;8830;50.978;5.058;2022-08-19T12:48:04;3.45;;;2.50;;
17424;SDS011;8830;50.978;5.058;2022-08-19T12:50:33;5.47;;;2.60;;
17424;SDS011;8830;50.978;5.058;2022-08-19T12:53:04;3.38;;;2.45;;
17424;SDS011;8830;50.978;5.058;2022-08-19T12:55:32;3.78;;;2.58;;
17424;SDS011;8830;50.978;5.058;2022-08-19T12:58:01;3.38;;;2.10;;
17424;SDS011;8830;50.978;5.058;2022-08-19T13:00:28;10.80;;;2.67;;
17424;SDS011;8830;50.978;5.058;2022-08-19T13:02:58;2.50;;;2.30;;
17424;SDS011;8830;50.978;5.058;2022-08-19T13:05:31;5.35;;;3.00;;
17424;SDS011;8830;50.978;5.058;2022-08-19T13:08:01;3.97;;;2.83;;
17424;SDS011;8830;50.978;5.058;2022-08-19T13:10:29;4.00;;;2.30;;
17424;SDS011;8830;50.978;5.058;2022-08-19T13:13:00;2.55;;;2.33;;
17424;SDS011;8830;50.978;5.058;2022-08-19T13:15:29;2.63;;;2.42;;
17424;SDS011;8830;50.978;5.058;2022-08-19T13:18:02;6.07;;;2.80;;
17424;SDS011;8830;50.978;5.058;2022-08-19T13:20:30;3.42;;;2.28;;
17424;SDS011;8830;50.978;5.058;2022-08-19T13:22:58;3.75;;;3.10;;
17424;SDS011;8830;50.978;5.058;2022-08-19T13:25:36;2.60;;;2.40;;
17424;SDS011;8830;50.978;5.058;2022-08-19T13:28:18;2.60;;;2.40;;
17424;SDS011;8830;50.978;5.058;2022-08-19T13:30:47;3.70;;;2.95;;
17424;SDS011;8830;50.978;5.058;2022-08-19T13:33:28;4.43;;;2.47;;
17424;SDS011;8830;50.978;5.058;2022-08-19T13:36:00;2.72;;;2.53;;
17424;SDS011;8830;50.978;5.058;2022-08-19T13:38:31;3.45;;;3.08;;
17424;SDS011;8830;50.978;5.058;2022-08-19T13:41:03;4.25;;;3.63;;
17424;SDS011;8830;50.978;5.058;2022-08-19T13:43:34;3.75;;;3.45;;
17424;SDS011;8830;50.978;5.058;2022-08-19T13:46:07;3.30;;;3.00;;
17424;SDS011;8830;50.978;5.058;2022-08-19T13:48:37;3.42;;;3.13;;
17424;SDS011;8830;50.978;5.058;2022-08-19T13:51:06;3.58;;;3.28;;
17424;SDS011;8830;50.978;5.058;2022-08-19T13:53:36;3.80;;;3.60;;
17424;SDS011;8830;50.978;5.058;2022-08-19T13:56:07;7.65;;;3.92;;
17424;SDS011;8830;50.978;5.058;2022-08-19T13:58:43;4.03;;;3.50;;
17424;SDS011;8830;50.978;5.058;2022-08-19T14:01:11;3.60;;;3.30;;
17424;SDS011;8830;50.978;5.058;2022-08-19T14:03:39;4.55;;;4.00;;
17424;SDS011;8830;50.978;5.058;2022-08-19T14:06:15;7.80;;;3.58;;
17424;SDS011;8830;50.978;5.058;2022-08-19T14:08:44;5.32;;;3.63;;
17424;SDS011;8830;50.978;5.058;2022-08-19T14:11:14;3.75;;;3.40;;
17424;SDS011;8830;50.978;5.058;2022-08-19T14:13:42;3.08;;;2.90;;
17424;SDS011;8830;50.978;5.058;2022-08-19T14:16:10;4.75;;;3.80;;
17424;SDS011;8830;50.978;5.058;2022-08-19T14:18:46;3.30;;;3.10;;
17424;SDS011;8830;50.978;5.058;2022-08-19T14:21:16;5.00;;;3.40;;
17424;SDS011;8830;50.978;5.058;2022-08-19T14:23:45;5.85;;;3.40;;
17424;SDS011;8830;50.978;5.058;2022-08-19T14:26:21;3.38;;;3.13;;
17424;SDS011;8830;50.978;5.058;2022-08-19T14:31:22;3.17;;;2.70;;
17424;SDS011;8830;50.978;5.058;2022-08-19T14:33:51;4.15;;;3.85;;
17424;SDS011;8830;50.978;5.058;2022-08-19T14:36:20;4.72;;;3.70;;
17424;SDS011;8830;50.978;5.058;2022-08-19T14:38:48;3.70;;;3.50;;
17424;SDS011;8830;50.978;5.058;2022-08-19T14:41:16;4.07;;;3.80;;
17424;SDS011;8830;50.978;5.058;2022-08-19T14:43:55;3.78;;;3.47;;
17424;SDS011;8830;50.978;5.058;2022-08-19T14:46:24;3.88;;;3.38;;
17424;SDS011;8830;50.978;5.058;2022-08-19T14:48:54;3.50;;;3.15;;
17424;SDS011;8830;50.978;5.058;2022-08-19T14:51:26;3.45;;;2.67;;
17424;SDS011;8830;50.978;5.058;2022-08-19T14:53:55;3.10;;;2.90;;
17424;SDS011;8830;50.978;5.058;2022-08-19T14:56:23;3.38;;;3.08;;
17424;SDS011;8830;50.978;5.058;2022-08-19T14:59:03;3.30;;;2.92;;
17424;SDS011;8830;50.978;5.058;2022-08-19T15:01:42;4.47;;;3.72;;
17424;SDS011;8830;50.978;5.058;2022-08-19T15:04:10;3.03;;;2.80;;
17424;SDS011;8830;50.978;5.058;2022-08-19T15:06:39;3.45;;;3.15;;
17424;SDS011;8830;50.978;5.058;2022-08-19T15:09:10;3.97;;;3.15;;
17424;SDS011;8830;50.978;5.058;2022-08-19T15:11:40;6.15;;;2.83;;
17424;SDS011;8830;50.978;5.058;2022-08-19T15:14:17;3.17;;;2.88;;
17424;SDS011;8830;50.978;5.058;2022-08-19T15:16:53;4.78;;;2.83;;
17424;SDS011;8830;50.978;5.058;2022-08-19T15:19:22;2.65;;;2.50;;
17424;SDS011;8830;50.978;5.058;2022-08-19T15:21:57;2.75;;;2.47;;
17424;SDS011;8830;50.978;5.058;2022-08-19T15:24:33;3.83;;;2.00;;
17424;SDS011;8830;50.978;5.058;2022-08-19T15:27:03;2.20;;;2.00;;
17424;SDS011;8830;50.978;5.058;2022-08-19T15:29:33;2.42;;;1.70;;
17424;SDS011;8830;50.978;5.058;2022-08-19T15:32:02;3.47;;;1.65;;
17424;SDS011;8830;50.978;5.058;2022-08-19T15:34:32;3.88;;;3.58;;
17424;SDS011;8830;50.978;5.058;2022-08-19T15:37:05;3.47;;;2.20;;
17424;SDS011;8830;50.978;5.058;2022-08-19T15:39:32;2.65;;;1.50;;
17424;SDS011;8830;50.978;5.058;2022-08-19T15:42:00;2.88;;;1.73;;
17424;SDS011;8830;50.978;5.058;2022-08-19T15:44:28;1.67;;;1.55;;
17424;SDS011;8830;50.978;5.058;2022-08-19T15:47:08;2.45;;;1.20;;
17424;SDS011;8830;50.978;5.058;2022-08-19T15:49:41;3.03;;;1.05;;
17424;SDS011;8830;50.978;5.058;2022-08-19T15:52:11;2.63;;;1.10;;
17424;SDS011;8830;50.978;5.058;2022-08-19T15:54:39;4.88;;;1.50;;
17424;SDS011;8830;50.978;5.058;2022-08-19T15:57:07;2.08;;;1.05;;
17424;SDS011;8830;50.978;5.058;2022-08-19T15:59:53;7.70;;;0.95;;
17424;SDS011;8830;50.978;5.058;2022-08-19T16:02:40;1.27;;;1.10;;
17424;SDS011;8830;50.978;5.058;2022-08-19T16:05:28;2.35;;;0.60;;
17424;SDS011;8830;50.978;5.058;2022-08-19T16:08:33;3.75;;;0.82;;
17424;SDS011;8830;50.978;5.058;2022-08-19T16:11:02;1.23;;;0.80;;
17424;SDS011;8830;50.978;5.058;2022-08-19T16:13:35;1.30;;;0.80;;
17424;SDS011;8830;50.978;5.058;2022-08-19T16:16:03;1.83;;;1.00;;
17424;SDS011;8830;50.978;5.058;2022-08-19T16:18:35;4.10;;;0.70;;
17424;SDS011;8830;50.978;5.058;2022-08-19T16:21:06;2.50;;;0.90;;
17424;SDS011;8830;50.978;5.058;2022-08-19T16:23:33;2.28;;;1.00;;
17424;SDS011;8830;50.978;5.058;2022-08-19T16:26:03;1.38;;;0.90;;
17424;SDS011;8830;50.978;5.058;2022-08-19T16:28:33;1.25;;;0.90;;
17424;SDS011;8830;50.978;5.058;2022-08-19T16:31:01;1.23;;;0.90;;
17424;SDS011;8830;50.978;5.058;2022-08-19T16:33:37;0.85;;;0.80;;
17424;SDS011;8830;50.978;5.058;2022-08-19T16:36:05;2.85;;;0.77;;
17424;SDS011;8830;50.978;5.058;2022-08-19T16:38:34;1.35;;;0.80;;
17424;SDS011;8830;50.978;5.058;2022-08-19T16:41:02;2.90;;;1.00;;
17424;SDS011;8830;50.978;5.058;2022-08-19T16:43:36;1.75;;;0.88;;
17424;SDS011;8830;50.978;5.058;2022-08-19T16:46:04;2.15;;;1.00;;
17424;SDS011;8830;50.978;5.058;2022-08-19T16:48:33;3.67;;;0.90;;
17424;SDS011;8830;50.978;5.058;2022-08-19T16:51:12;1.45;;;1.35;;
17424;SDS011;8830;50.978;5.058;2022-08-19T16:53:41;1.27;;;0.90;;
17424;SDS011;8830;50.978;5.058;2022-08-19T16:56:11;2.40;;;0.90;;
17424;SDS011;8830;50.978;5.058;2022-08-19T16:58:44;1.08;;;0.77;;
17424;SDS011;8830;50.978;5.058;2022-08-19T17:01:17;1.50;;;1.40;;